sensor_id;sensor_type;location;lat;lon;timestamp;pressure;altitude;pressure_sealevel;temperature;humidity
8477;BME280;4275;42.854;23.222;2024-03-23T00:52:36;67007.31;;;-141.02;100.00
8477;BME280;4275;42.854;23.222;2024-03-23T00:55:02;67202.59;;;-141.02;100.00
8477;BME280;4275;42.854;23.222;2024-03-23T00:57:29;67061.44;;;-141.02;100.00
8477;BME280;4275;42.854;23.222;2024-03-23T00:59:55;66326.78;;;-141.02;100.00
8477;BME280;4275;42.854;23.222;2024-03-23T01:02:22;65397.09;;;-141.02;100.00
8477;BME280;4275;42.854;23.222;2024-03-23T01:04:48;65611.63;;;-141.02;100.00
8477;BME280;4275;42.854;23.222;2024-03-23T01:07:15;65536.25;;;-141.02;100.00
8477;BME280;4275;42.854;23.222;2024-03-23T01:09:42;65998.19;;;-141.02;100.00
8477;BME280;4275;42.854;23.222;2024-03-23T01:12:09;67111.72;;;-141.02;100.00
8477;BME280;4275;42.854;23.222;2024-03-23T01:14:35;68863.97;;;-141.02;100.00
8477;BME280;4275;42.854;23.222;2024-03-23T01:17:09;71596.63;;;-141.02;100.00
8477;BME280;4275;42.854;23.222;2024-03-23T01:19:35;72340.16;;;-141.02;100.00
8477;BME280;4275;42.854;23.222;2024-03-23T01:22:04;71596.63;;;-141.02;100.00
8477;BME280;4275;42.854;23.222;2024-03-23T01:24:30;70853.25;;;-141.02;100.00
8477;BME280;4275;42.854;23.222;2024-03-23T01:26:59;71101.03;;;-141.02;100.00
8477;BME280;4275;42.854;23.222;2024-03-23T01:29:25;70853.25;;;-141.02;100.00
8477;BME280;4275;42.854;23.222;2024-03-23T01:31:52;71348.81;;;-141.02;100.00
8477;BME280;4275;42.854;23.222;2024-03-23T01:34:18;72340.16;;;-141.02;100.00
8477;BME280;4275;42.854;23.222;2024-03-23T01:36:46;73331.81;;;-141.02;100.00
8477;BME280;4275;42.854;23.222;2024-03-23T01:39:12;74075.72;;;-141.02;100.00
8477;BME280;4275;42.854;23.222;2024-03-23T01:41:39;74323.72;;;-141.02;100.00
8477;BME280;4275;42.854;23.222;2024-03-23T01:44:09;74323.72;;;-141.02;100.00
8477;BME280;4275;42.854;23.222;2024-03-23T01:46:37;74819.81;;;-141.02;100.00
8477;BME280;4275;42.854;23.222;2024-03-23T01:49:04;75564.03;;;-141.02;100.00
8477;BME280;4275;42.854;23.222;2024-03-23T01:51:32;75315.94;;;-141.02;100.00
8477;BME280;4275;42.854;23.222;2024-03-23T01:54:00;75067.88;;;-141.02;100.00
8477;BME280;4275;42.854;23.222;2024-03-23T01:56:29;74819.81;;;-141.02;100.00
8477;BME280;4275;42.854;23.222;2024-03-23T01:58:55;74571.75;;;-141.02;100.00
8477;BME280;4275;42.854;23.222;2024-03-23T02:01:24;74819.81;;;-141.02;100.00
8477;BME280;4275;42.854;23.222;2024-03-23T02:03:50;75315.94;;;-141.02;100.00
8477;BME280;4275;42.854;23.222;2024-03-23T02:06:18;76308.44;;;-141.02;100.00
8477;BME280;4275;42.854;23.222;2024-03-23T02:08:44;79784.44;;;-141.02;100.00
8477;BME280;4275;42.854;23.222;2024-03-23T02:11:11;80032.88;;;-141.02;100.00
8477;BME280;4275;42.854;23.222;2024-03-23T02:13:36;80032.88;;;-141.02;100.00
8477;BME280;4275;42.854;23.222;2024-03-23T02:16:05;80529.75;;;-141.02;100.00
8477;BME280;4275;42.854;23.222;2024-03-23T02:18:32;81275.25;;;-141.02;100.00
8477;BME280;4275;42.854;23.222;2024-03-23T02:20:59;81772.31;;;-141.02;100.00
8477;BME280;4275;42.854;23.222;2024-03-23T02:23:27;81275.25;;;-141.02;100.00
8477;BME280;4275;42.854;23.222;2024-03-23T02:25:53;81026.72;;;-141.02;100.00
8477;BME280;4275;42.854;23.222;2024-03-23T02:28:19;82766.69;;;-141.02;100.00
8477;BME280;4275;42.854;23.222;2024-03-23T02:30:48;84507.50;;;-141.02;100.00
8477;BME280;4275;42.854;23.222;2024-03-23T02:33:13;84756.25;;;-141.02;100.00
8477;BME280;4275;42.854;23.222;2024-03-23T02:35:40;85502.66;;;-141.02;100.00
8477;BME280;4275;42.854;23.222;2024-03-23T02:38:06;85253.84;;;-141.02;100.00
8477;BME280;4275;42.854;23.222;2024-03-23T02:40:35;84756.25;;;-141.02;100.00
8477;BME280;4275;42.854;23.222;2024-03-23T02:43:02;85005.03;;;-141.02;100.00
8477;BME280;4275;42.854;23.222;2024-03-23T02:45:30;85005.03;;;-141.02;100.00
8477;BME280;4275;42.854;23.222;2024-03-23T02:47:56;84756.25;;;-141.02;100.00
8477;BME280;4275;42.854;23.222;2024-03-23T02:50:23;84756.25;;;-141.02;100.00
8477;BME280;4275;42.854;23.222;2024-03-23T02:52:49;85751.50;;;-141.02;100.00
8477;BME280;4275;42.854;23.222;2024-03-23T02:55:16;87991.81;;;-141.02;100.00
8477;BME280;4275;42.854;23.222;2024-03-23T02:57:43;88738.88;;;-141.02;100.00
8477;BME280;4275;42.854;23.222;2024-03-23T03:00:11;88738.88;;;-141.02;100.00
8477;BME280;4275;42.854;23.222;2024-03-23T03:02:38;89237.03;;;-141.02;100.00
8477;BME280;4275;42.854;23.222;2024-03-23T03:05:06;90233.56;;;-141.02;100.00
8477;BME280;4275;42.854;23.222;2024-03-23T03:07:32;90482.72;;;-141.02;100.00
8477;BME280;4275;42.854;23.222;2024-03-23T03:09:59;90233.56;;;-141.02;100.00
8477;BME280;4275;42.854;23.222;2024-03-23T03:12:25;89984.41;;;-141.02;100.00
8477;BME280;4275;42.854;23.222;2024-03-23T03:14:54;89486.16;;;-141.02;100.00
8477;BME280;4275;42.854;23.222;2024-03-23T03:17:19;88987.97;;;-141.02;100.00
8477;BME280;4275;42.854;23.222;2024-03-23T03:19:46;88987.97;;;-141.02;100.00
8477;BME280;4275;42.854;23.222;2024-03-23T03:22:12;89486.16;;;-141.02;100.00
8477;BME280;4275;42.854;23.222;2024-03-23T03:24:39;88489.84;;;-141.02;100.00
8477;BME280;4275;42.854;23.222;2024-03-23T03:27:05;87742.81;;;-141.02;100.00
8477;BME280;4275;42.854;23.222;2024-03-23T03:29:32;86995.94;;;-141.02;100.00
8477;BME280;4275;42.854;23.222;2024-03-23T03:32:03;86747.00;;;-141.02;100.00
8477;BME280;4275;42.854;23.222;2024-03-23T03:34:30;86995.94;;;-141.02;100.00
8477;BME280;4275;42.854;23.222;2024-03-23T03:36:56;86747.00;;;-141.02;100.00
8477;BME280;4275;42.854;23.222;2024-03-23T03:39:23;86249.22;;;-141.02;100.00
8477;BME280;4275;42.854;23.222;2024-03-23T03:41:49;85253.84;;;-141.02;100.00
8477;BME280;4275;42.854;23.222;2024-03-23T03:44:16;86000.34;;;-141.02;100.00
8477;BME280;4275;42.854;23.222;2024-03-23T03:46:42;86747.00;;;-141.02;100.00
8477;BME280;4275;42.854;23.222;2024-03-23T03:49:11;85005.03;;;-141.02;100.00
8477;BME280;4275;42.854;23.222;2024-03-23T03:51:37;85253.84;;;-141.02;100.00
8477;BME280;4275;42.854;23.222;2024-03-23T03:54:04;86747.00;;;-141.02;100.00
8477;BME280;4275;42.854;23.222;2024-03-23T03:56:30;87742.81;;;-141.02;100.00
8477;BME280;4275;42.854;23.222;2024-03-23T03:58:57;87742.81;;;-141.02;100.00
8477;BME280;4275;42.854;23.222;2024-03-23T04:01:23;87991.81;;;-141.02;100.00
8477;BME280;4275;42.854;23.222;2024-03-23T04:03:49;87742.81;;;-141.02;100.00
8477;BME280;4275;42.854;23.222;2024-03-23T04:06:20;87742.81;;;-141.02;100.00
8477;BME280;4275;42.854;23.222;2024-03-23T04:08:47;87991.81;;;-141.02;100.00
8477;BME280;4275;42.854;23.222;2024-03-23T04:11:12;88240.81;;;-141.02;100.00
8477;BME280;4275;42.854;23.222;2024-03-23T04:13:39;88240.81;;;-141.02;100.00
8477;BME280;4275;42.854;23.222;2024-03-23T04:16:07;88987.97;;;-141.02;100.00
8477;BME280;4275;42.854;23.222;2024-03-23T04:18:34;89486.16;;;-141.02;100.00
8477;BME280;4275;42.854;23.222;2024-03-23T04:21:00;89486.16;;;-141.02;100.00
8477;BME280;4275;42.854;23.222;2024-03-23T04:23:29;88987.97;;;-141.02;100.00
8477;BME280;4275;42.854;23.222;2024-03-23T04:25:55;89237.03;;;-141.02;100.00
8477;BME280;4275;42.854;23.222;2024-03-23T04:28:22;89486.16;;;-141.02;100.00
8477;BME280;4275;42.854;23.222;2024-03-23T04:30:48;89486.16;;;-141.02;100.00
8477;BME280;4275;42.854;23.222;2024-03-23T04:33:15;88738.88;;;-141.02;100.00
8477;BME280;4275;42.854;23.222;2024-03-23T04:35:41;87991.81;;;-141.02;100.00
8477;BME280;4275;42.854;23.222;2024-03-23T04:38:08;87742.81;;;-141.02;100.00
8477;BME280;4275;42.854;23.222;2024-03-23T04:40:36;87991.81;;;-141.02;100.00
8477;BME280;4275;42.854;23.222;2024-03-23T04:43:03;87991.81;;;-141.02;100.00
8477;BME280;4275;42.854;23.222;2024-03-23T04:45:31;87742.81;;;-141.02;100.00
8477;BME280;4275;42.854;23.222;2024-03-23T04:47:58;87493.84;;;-141.02;100.00
8477;BME280;4275;42.854;23.222;2024-03-23T04:50:24;86995.94;;;-141.02;100.00
8477;BME280;4275;42.854;23.222;2024-03-23T04:52:51;86995.94;;;-141.02;100.00
8477;BME280;4275;42.854;23.222;2024-03-23T04:55:18;86747.00;;;-141.02;100.00
8477;BME280;4275;42.854;23.222;2024-03-23T04:57:47;86249.22;;;-141.02;100.00
8477;BME280;4275;42.854;23.222;2024-03-23T05:00:13;85502.66;;;-141.02;100.00
8477;BME280;4275;42.854;23.222;2024-03-23T05:02:46;85253.84;;;-141.02;100.00
8477;BME280;4275;42.854;23.222;2024-03-23T05:05:12;84507.50;;;-141.02;100.00
8477;BME280;4275;42.854;23.222;2024-03-23T05:07:39;83761.31;;;-141.02;100.00
8477;BME280;4275;42.854;23.222;2024-03-23T05:10:05;83015.31;;;-141.02;100.00
8477;BME280;4275;42.854;23.222;2024-03-23T05:12:35;82766.69;;;-141.02;100.00
8477;BME280;4275;42.854;23.222;2024-03-23T05:15:03;81523.75;;;-141.02;100.00
8477;BME280;4275;42.854;23.222;2024-03-23T05:17:31;79784.44;;;-141.02;100.00
8477;BME280;4275;42.854;23.222;2024-03-23T05:19:57;79039.28;;;-141.02;100.00
8477;BME280;4275;42.854;23.222;2024-03-23T05:22:24;77797.72;;;-141.02;100.00
8477;BME280;4275;42.854;23.222;2024-03-23T05:24:50;77301.22;;;-141.02;100.00
8477;BME280;4275;42.854;23.222;2024-03-23T05:27:16;77301.22;;;-141.02;100.00
8477;BME280;4275;42.854;23.222;2024-03-23T05:29:43;78046.00;;;-141.02;100.00
8477;BME280;4275;42.854;23.222;2024-03-23T05:32:10;77549.47;;;-141.02;100.00
8477;BME280;4275;42.854;23.222;2024-03-23T05:34:38;77549.47;;;-141.02;100.00
8477;BME280;4275;42.854;23.222;2024-03-23T05:37:04;77301.22;;;-141.02;100.00
8477;BME280;4275;42.854;23.222;2024-03-23T05:39:31;77053.00;;;-141.02;100.00
8477;BME280;4275;42.854;23.222;2024-03-23T05:41:57;76556.59;;;-141.02;100.00
8477;BME280;4275;42.854;23.222;2024-03-23T05:44:24;76804.81;;;-141.02;100.00
8477;BME280;4275;42.854;23.222;2024-03-23T05:46:50;76804.81;;;-141.02;100.00
8477;BME280;4275;42.854;23.222;2024-03-23T05:49:18;76556.59;;;-141.02;100.00
8477;BME280;4275;42.854;23.222;2024-03-23T05:51:44;76308.44;;;-141.02;100.00
8477;BME280;4275;42.854;23.222;2024-03-23T05:54:11;76556.59;;;-141.02;100.00
8477;BME280;4275;42.854;23.222;2024-03-23T05:56:37;76308.44;;;-141.02;100.00
8477;BME280;4275;42.854;23.222;2024-03-23T05:59:04;77053.00;;;-141.02;100.00
8477;BME280;4275;42.854;23.222;2024-03-23T06:01:30;76804.81;;;-141.02;100.00
8477;BME280;4275;42.854;23.222;2024-03-23T06:03:58;76308.44;;;-141.02;100.00
8477;BME280;4275;42.854;23.222;2024-03-23T06:06:25;75564.03;;;-141.02;100.00
8477;BME280;4275;42.854;23.222;2024-03-23T06:08:52;74819.81;;;-141.02;100.00
8477;BME280;4275;42.854;23.222;2024-03-23T06:11:18;74075.72;;;-141.02;100.00
8477;BME280;4275;42.854;23.222;2024-03-23T06:13:45;75067.88;;;-141.02;100.00
8477;BME280;4275;42.854;23.222;2024-03-23T06:16:11;75067.88;;;-141.02;100.00
8477;BME280;4275;42.854;23.222;2024-03-23T06:18:39;76556.59;;;-141.02;100.00
8477;BME280;4275;42.854;23.222;2024-03-23T06:21:05;75564.03;;;-141.02;100.00
8477;BME280;4275;42.854;23.222;2024-03-23T06:23:33;75812.16;;;-141.02;100.00
8477;BME280;4275;42.854;23.222;2024-03-23T06:25:59;75564.03;;;-141.02;100.00
8477;BME280;4275;42.854;23.222;2024-03-23T06:28:26;76556.59;;;-141.02;100.00
8477;BME280;4275;42.854;23.222;2024-03-23T06:30:52;75067.88;;;-141.02;100.00
8477;BME280;4275;42.854;23.222;2024-03-23T06:33:19;76060.28;;;-141.02;100.00
8477;BME280;4275;42.854;23.222;2024-03-23T06:35:50;75067.88;;;-141.02;99.39
8477;BME280;4275;42.854;23.222;2024-03-23T06:38:17;75067.88;;;-141.02;99.90
8477;BME280;4275;42.854;23.222;2024-03-23T06:40:45;73827.72;;;-141.02;99.27
8477;BME280;4275;42.854;23.222;2024-03-23T06:43:14;73827.72;;;-141.02;100.00
8477;BME280;4275;42.854;23.222;2024-03-23T06:45:40;75564.03;;;-141.02;100.00
8477;BME280;4275;42.854;23.222;2024-03-23T06:48:07;75564.03;;;-141.02;100.00
8477;BME280;4275;42.854;23.222;2024-03-23T06:50:33;75564.03;;;-141.02;100.00
8477;BME280;4275;42.854;23.222;2024-03-23T06:53:00;76556.59;;;-141.02;100.00
8477;BME280;4275;42.854;23.222;2024-03-23T06:55:27;76556.59;;;-141.02;100.00
8477;BME280;4275;42.854;23.222;2024-03-23T06:57:56;76556.59;;;-141.02;100.00
8477;BME280;4275;42.854;23.222;2024-03-23T07:00:22;78542.63;;;-141.02;100.00
8477;BME280;4275;42.854;23.222;2024-03-23T07:02:50;77797.72;;;-141.02;100.00
8477;BME280;4275;42.854;23.222;2024-03-23T07:05:16;77301.22;;;-141.02;100.00
8477;BME280;4275;42.854;23.222;2024-03-23T07:07:43;77301.22;;;-141.02;99.67
8477;BME280;4275;42.854;23.222;2024-03-23T07:10:09;78542.63;;;-141.02;100.00
8477;BME280;4275;42.854;23.222;2024-03-23T07:12:37;78046.00;;;-141.02;99.47
8477;BME280;4275;42.854;23.222;2024-03-23T07:15:05;78790.94;;;-141.02;99.34
8477;BME280;4275;42.854;23.222;2024-03-23T07:17:32;77797.72;;;-141.02;96.58
8477;BME280;4275;42.854;23.222;2024-03-23T07:19:58;78294.28;;;-141.02;96.63
8477;BME280;4275;42.854;23.222;2024-03-23T07:22:26;78542.63;;;-141.02;95.31
8477;BME280;4275;42.854;23.222;2024-03-23T07:24:52;78790.94;;;-141.02;95.34
8477;BME280;4275;42.854;23.222;2024-03-23T07:27:19;80281.31;;;-141.02;96.25
8477;BME280;4275;42.854;23.222;2024-03-23T07:29:45;79287.66;;;-141.02;92.11
8477;BME280;4275;42.854;23.222;2024-03-23T07:32:14;79784.44;;;-141.02;93.10
8477;BME280;4275;42.854;23.222;2024-03-23T07:34:39;79784.44;;;-141.02;90.80
8477;BME280;4275;42.854;23.222;2024-03-23T07:37:09;80529.75;;;-141.02;91.33
8477;BME280;4275;42.854;23.222;2024-03-23T07:39:34;80281.31;;;-141.02;90.84
8477;BME280;4275;42.854;23.222;2024-03-23T07:42:02;80281.31;;;-141.02;91.36
8477;BME280;4275;42.854;23.222;2024-03-23T07:44:28;81275.25;;;-141.02;91.33
8477;BME280;4275;42.854;23.222;2024-03-23T07:46:55;80529.75;;;-141.02;88.39
8477;BME280;4275;42.854;23.222;2024-03-23T07:49:22;79536.03;;;-141.02;89.08
8477;BME280;4275;42.854;23.222;2024-03-23T07:51:49;78542.63;;;-141.02;85.13
8477;BME280;4275;42.854;23.222;2024-03-23T07:54:15;79287.66;;;-141.02;86.22
8477;BME280;4275;42.854;23.222;2024-03-23T07:56:42;80529.75;;;-141.02;90.14
8477;BME280;4275;42.854;23.222;2024-03-23T07:59:08;79287.66;;;-141.02;87.10
8477;BME280;4275;42.854;23.222;2024-03-23T08:01:36;79784.44;;;-141.02;85.85
8477;BME280;4275;42.854;23.222;2024-03-23T08:04:02;79536.03;;;-141.02;83.46
8477;BME280;4275;42.854;23.222;2024-03-23T08:06:31;80281.31;;;-141.02;82.93
8477;BME280;4275;42.854;23.222;2024-03-23T08:08:57;80281.31;;;-141.02;83.65
8477;BME280;4275;42.854;23.222;2024-03-23T08:11:26;79039.28;;;-141.02;81.38
8477;BME280;4275;42.854;23.222;2024-03-23T08:13:52;79536.03;;;-141.02;81.81
8477;BME280;4275;42.854;23.222;2024-03-23T08:16:19;79536.03;;;-141.02;78.02
8477;BME280;4275;42.854;23.222;2024-03-23T08:18:45;78294.28;;;-141.02;77.36
8477;BME280;4275;42.854;23.222;2024-03-23T08:21:12;80529.75;;;-141.02;77.94
8477;BME280;4275;42.854;23.222;2024-03-23T08:23:39;80529.75;;;-141.02;77.19
8477;BME280;4275;42.854;23.222;2024-03-23T08:26:07;77549.47;;;-141.02;76.15
8477;BME280;4275;42.854;23.222;2024-03-23T08:28:34;77053.00;;;-141.02;75.60
8477;BME280;4275;42.854;23.222;2024-03-23T08:31:02;76556.59;;;-141.02;74.55
8477;BME280;4275;42.854;23.222;2024-03-23T08:33:28;78542.63;;;-141.02;76.70
8477;BME280;4275;42.854;23.222;2024-03-23T08:35:56;77797.72;;;-141.02;73.96
8477;BME280;4275;42.854;23.222;2024-03-23T08:38:22;78790.94;;;-141.02;72.89
8477;BME280;4275;42.854;23.222;2024-03-23T08:40:57;75564.03;;;-141.02;73.29
8477;BME280;4275;42.854;23.222;2024-03-23T08:43:24;75067.88;;;-141.02;72.80
8477;BME280;4275;42.854;23.222;2024-03-23T08:45:51;76060.28;;;-141.02;72.70
8477;BME280;4275;42.854;23.222;2024-03-23T08:48:17;72588.06;;;-141.02;68.62
8477;BME280;4275;42.854;23.222;2024-03-23T08:50:45;73827.72;;;-141.02;70.27
8477;BME280;4275;42.854;23.222;2024-03-23T08:53:11;71101.03;;;-141.02;68.46
8477;BME280;4275;42.854;23.222;2024-03-23T08:55:38;70605.50;;;-141.02;69.23
8477;BME280;4275;42.854;23.222;2024-03-23T08:58:06;69852.66;;;-141.02;71.03
8477;BME280;4275;42.854;23.222;2024-03-23T09:00:34;72092.31;;;-141.02;72.12
8477;BME280;4275;42.854;23.222;2024-03-23T09:03:00;71101.03;;;-141.02;70.73
8477;BME280;4275;42.854;23.222;2024-03-23T09:05:28;70853.25;;;-141.02;70.56
8477;BME280;4275;42.854;23.222;2024-03-23T09:07:56;73827.72;;;-141.02;70.00
8477;BME280;4275;42.854;23.222;2024-03-23T09:10:23;75812.16;;;-141.02;71.06
8477;BME280;4275;42.854;23.222;2024-03-23T09:12:49;76308.44;;;-141.02;68.48
8477;BME280;4275;42.854;23.222;2024-03-23T09:15:17;75067.88;;;-141.02;67.02
8477;BME280;4275;42.854;23.222;2024-03-23T09:17:43;75067.88;;;-141.02;66.71
8477;BME280;4275;42.854;23.222;2024-03-23T09:20:11;75564.03;;;-141.02;66.89
8477;BME280;4275;42.854;23.222;2024-03-23T09:22:37;73331.81;;;-141.02;69.31
8477;BME280;4275;42.854;23.222;2024-03-23T09:25:04;69461.78;;;-141.02;67.66
8477;BME280;4275;42.854;23.222;2024-03-23T09:27:30;70102.28;;;-141.02;66.42
8477;BME280;4275;42.854;23.222;2024-03-23T09:29:57;66976.38;;;-141.02;63.76
8477;BME280;4275;42.854;23.222;2024-03-23T09:32:26;69448.25;;;-141.02;65.22
8477;BME280;4275;42.854;23.222;2024-03-23T09:34:52;71101.03;;;-141.02;64.16
8477;BME280;4275;42.854;23.222;2024-03-23T09:37:18;69560.47;;;-141.02;64.45
8477;BME280;4275;42.854;23.222;2024-03-23T09:39:45;72835.97;;;-141.02;66.22
8477;BME280;4275;42.854;23.222;2024-03-23T09:42:11;70853.25;;;-141.02;63.67
8477;BME280;4275;42.854;23.222;2024-03-23T09:44:39;70853.25;;;-141.02;65.38
8477;BME280;4275;42.854;23.222;2024-03-23T09:47:06;65893.81;;;-141.02;64.23
8477;BME280;4275;42.854;23.222;2024-03-23T09:49:37;69158.03;;;-141.02;65.81
8477;BME280;4275;42.854;23.222;2024-03-23T09:52:04;66396.38;;;-141.02;63.29
8477;BME280;4275;42.854;23.222;2024-03-23T09:54:32;66616.75;;;-141.02;63.19
8477;BME280;4275;42.854;23.222;2024-03-23T09:56:58;64187.50;;;-141.02;65.27
8477;BME280;4275;42.854;23.222;2024-03-23T09:59:25;64498.56;;;-141.02;65.72
8477;BME280;4275;42.854;23.222;2024-03-23T10:01:52;64197.16;;;-141.02;65.26
8477;BME280;4275;42.854;23.222;2024-03-23T10:04:40;64985.47;;;-141.02;65.27
8477;BME280;4275;42.854;23.222;2024-03-23T10:07:17;65105.28;;;-141.02;62.42
8477;BME280;4275;42.854;23.222;2024-03-23T10:09:45;63206.25;;;-141.02;60.76
8477;BME280;4275;42.854;23.222;2024-03-23T10:12:12;62381.66;;;-141.02;60.84
8477;BME280;4275;42.854;23.222;2024-03-23T10:14:40;66744.38;;;-141.02;63.00
8477;BME280;4275;42.854;23.222;2024-03-23T10:17:12;66806.22;;;-141.02;62.33
8477;BME280;4275;42.854;23.222;2024-03-23T10:19:42;62389.41;;;-141.02;60.10
8477;BME280;4275;42.854;23.222;2024-03-23T10:22:09;65439.59;;;-141.02;61.01
8477;BME280;4275;42.854;23.222;2024-03-23T10:24:36;66864.22;;;-141.02;61.07
8477;BME280;4275;42.854;23.222;2024-03-23T10:27:02;64398.09;;;-141.02;59.08
8477;BME280;4275;42.854;23.222;2024-03-23T10:29:29;62883.72;;;-141.02;59.66
8477;BME280;4275;42.854;23.222;2024-03-23T10:32:07;66029.09;;;-141.02;61.22
8477;BME280;4275;42.854;23.222;2024-03-23T10:34:35;66251.41;;;-141.02;60.81
8477;BME280;4275;42.854;23.222;2024-03-23T10:37:04;65795.22;;;-141.02;59.46
8477;BME280;4275;42.854;23.222;2024-03-23T10:39:32;67274.13;;;-141.02;61.88
8477;BME280;4275;42.854;23.222;2024-03-23T10:42:00;68989.72;;;-141.02;61.53
8477;BME280;4275;42.854;23.222;2024-03-23T10:44:29;66255.25;;;-141.02;59.91
8477;BME280;4275;42.854;23.222;2024-03-23T10:46:56;66937.72;;;-141.02;60.08
8477;BME280;4275;42.854;23.222;2024-03-23T10:49:27;64742.00;;;-141.02;59.11
8477;BME280;4275;42.854;23.222;2024-03-23T10:51:56;63843.66;;;-141.02;59.16
8477;BME280;4275;42.854;23.222;2024-03-23T10:54:25;62393.25;;;-141.02;58.94
8477;BME280;4275;42.854;23.222;2024-03-23T10:56:55;64421.28;;;-141.02;61.14
8477;BME280;4275;42.854;23.222;2024-03-23T10:59:24;64309.22;;;-141.02;60.35
8477;BME280;4275;42.854;23.222;2024-03-23T11:01:54;61814.03;;;-141.02;61.31
8477;BME280;4275;42.854;23.222;2024-03-23T11:04:33;59320.69;;;-141.02;59.30
8477;BME280;4275;42.854;23.222;2024-03-23T11:06:59;60926.09;;;-141.02;59.60
8477;BME280;4275;42.854;23.222;2024-03-23T11:09:40;59625.50;;;-141.02;59.95
8477;BME280;4275;42.854;23.222;2024-03-23T11:12:26;59370.84;;;-141.02;60.58
8477;BME280;4275;42.854;23.222;2024-03-23T11:14:54;59467.31;;;-141.02;60.09
8477;BME280;4275;42.854;23.222;2024-03-23T11:17:22;61954.97;;;-141.02;60.54
8477;BME280;4275;42.854;23.222;2024-03-23T11:19:57;65180.66;;;-141.02;59.93
8477;BME280;4275;42.854;23.222;2024-03-23T11:22:47;63391.66;;;-141.02;58.39
8477;BME280;4275;42.854;23.222;2024-03-23T11:25:18;60665.56;;;-141.02;58.27
8477;BME280;4275;42.854;23.222;2024-03-23T11:27:46;60030.69;;;-141.02;58.31
8477;BME280;4275;42.854;23.222;2024-03-23T11:30:15;62138.38;;;-141.02;58.91
8477;BME280;4275;42.854;23.222;2024-03-23T11:32:42;59347.69;;;-141.02;58.12
8477;BME280;4275;42.854;23.222;2024-03-23T11:35:09;59478.88;;;-141.02;58.74
8477;BME280;4275;42.854;23.222;2024-03-23T11:37:36;61750.34;;;-141.02;57.95
8477;BME280;4275;42.854;23.222;2024-03-23T11:40:21;62458.91;;;-141.02;59.05
8477;BME280;4275;42.854;23.222;2024-03-23T11:42:55;63281.56;;;-141.02;59.52
8477;BME280;4275;42.854;23.222;2024-03-23T11:45:22;63331.78;;;-141.02;59.46
8477;BME280;4275;42.854;23.222;2024-03-23T11:47:48;61319.84;;;-141.02;57.03
8477;BME280;4275;42.854;23.222;2024-03-23T11:50:19;64374.91;;;-141.02;59.07
8477;BME280;4275;42.854;23.222;2024-03-23T11:52:45;64840.56;;;-141.02;58.03
8477;BME280;4275;42.854;23.222;2024-03-23T11:55:12;63951.81;;;-141.02;57.03
8477;BME280;4275;42.854;23.222;2024-03-23T11:57:40;64394.22;;;-141.02;57.34
8477;BME280;4275;42.854;23.222;2024-03-23T12:00:21;63810.81;;;-141.02;56.60
8477;BME280;4275;42.854;23.222;2024-03-23T12:02:47;61269.66;;;-141.02;55.49
8477;BME280;4275;42.854;23.222;2024-03-23T12:05:15;60142.59;;;-141.02;55.14
8477;BME280;4275;42.854;23.222;2024-03-23T12:07:41;59787.56;;;-141.02;55.26
8477;BME280;4275;42.854;23.222;2024-03-23T12:10:08;57943.56;;;-141.02;55.85
8477;BME280;4275;42.854;23.222;2024-03-23T12:12:34;58498.97;;;-141.02;57.00
8477;BME280;4275;42.854;23.222;2024-03-23T12:15:04;57741.09;;;-141.02;56.28
8477;BME280;4275;42.854;23.222;2024-03-23T12:17:31;57419.09;;;-141.02;56.21
8477;BME280;4275;42.854;23.222;2024-03-23T12:19:58;57286.06;;;-141.02;56.82
8477;BME280;4275;42.854;23.222;2024-03-23T12:22:24;57160.75;;;-141.02;56.65
8477;BME280;4275;42.854;23.222;2024-03-23T12:24:52;57453.81;;;-141.02;57.05
8477;BME280;4275;42.854;23.222;2024-03-23T12:27:18;56320.28;;;-141.02;56.82
8477;BME280;4275;42.854;23.222;2024-03-23T12:29:45;59289.81;;;-141.02;59.37
8477;BME280;4275;42.854;23.222;2024-03-23T12:32:13;57683.25;;;-141.02;56.44
8477;BME280;4275;42.854;23.222;2024-03-23T12:34:40;57789.31;;;-141.02;56.18
8477;BME280;4275;42.854;23.222;2024-03-23T12:37:06;58691.84;;;-141.02;56.27
8477;BME280;4275;42.854;23.222;2024-03-23T12:39:34;60186.97;;;-141.02;56.13
8477;BME280;4275;42.854;23.222;2024-03-23T12:42:01;59868.59;;;-141.02;55.98
8477;BME280;4275;42.854;23.222;2024-03-23T12:44:29;59839.66;;;-141.02;55.83
8477;BME280;4275;42.854;23.222;2024-03-23T12:46:55;60474.50;;;-141.02;56.94
8477;BME280;4275;42.854;23.222;2024-03-23T12:49:23;56935.19;;;-141.02;55.80
8477;BME280;4275;42.854;23.222;2024-03-23T12:51:54;58219.34;;;-141.02;56.27
8477;BME280;4275;42.854;23.222;2024-03-23T12:54:21;59502.03;;;-141.02;55.71
8477;BME280;4275;42.854;23.222;2024-03-23T12:56:47;59972.81;;;-141.02;55.81
8477;BME280;4275;42.854;23.222;2024-03-23T12:59:14;59185.66;;;-141.02;55.31
8477;BME280;4275;42.854;23.222;2024-03-23T13:01:41;59069.91;;;-141.02;55.48
8477;BME280;4275;42.854;23.222;2024-03-23T13:04:08;57237.88;;;-141.02;54.65
8477;BME280;4275;42.854;23.222;2024-03-23T13:06:36;59417.16;;;-141.02;56.71
8477;BME280;4275;42.854;23.222;2024-03-23T13:09:03;57812.44;;;-141.02;54.94
8477;BME280;4275;42.854;23.222;2024-03-23T13:11:29;59150.94;;;-141.02;57.26
8477;BME280;4275;42.854;23.222;2024-03-23T13:13:56;59303.31;;;-141.02;54.92
8477;BME280;4275;42.854;23.222;2024-03-23T13:16:22;58178.84;;;-141.02;54.36
8477;BME280;4275;42.854;23.222;2024-03-23T13:18:49;57889.56;;;-141.02;54.27
8477;BME280;4275;42.854;23.222;2024-03-23T13:21:15;58961.88;;;-141.02;56.30
8477;BME280;4275;42.854;23.222;2024-03-23T13:23:46;59386.28;;;-141.02;54.82
8477;BME280;4275;42.854;23.222;2024-03-23T13:26:13;59228.09;;;-141.02;53.82
8477;BME280;4275;42.854;23.222;2024-03-23T13:28:40;58821.09;;;-141.02;54.66
8477;BME280;4275;42.854;23.222;2024-03-23T13:31:06;59081.50;;;-141.02;54.11
8477;BME280;4275;42.854;23.222;2024-03-23T13:33:34;61447.25;;;-141.02;54.82
8477;BME280;4275;42.854;23.222;2024-03-23T13:36:00;59475.03;;;-141.02;53.57
8477;BME280;4275;42.854;23.222;2024-03-23T13:38:27;58759.38;;;-141.02;53.16